Time;durP1;ratioP1;P1;durP2;ratioP2;P2;SDS_P1;SDS_P2;PMS_P1;PMS_P2;Temp;Humidity;BMP_temperature;BMP_pressure;BME280_temperature;BME280_humidity;BME280_pressure;Samples;Min_cycle;Max_cycle;Signal;HPM_P1;HPM_P2
2023/12/18 00:01:08;;;;;;;16.02;14.63;;;3.00;99.90;;;;;;5169020;28;20034;-79
2023/12/18 00:03:39;;;;;;;14.93;13.70;;;2.80;99.90;;;;;;5168645;28;20100;-79
2023/12/18 00:06:10;;;;;;;14.38;13.15;;;2.90;99.90;;;;;;5169138;28;20458;-79
2023/12/18 00:08:41;;;;;;;13.57;12.13;;;2.70;99.90;;;;;;5169128;28;20050;-79
2023/12/18 00:11:14;;;;;;;11.55;10.55;;;2.70;99.90;;;;;;5168656;28;20060;-79
2023/12/18 00:13:45;;;;;;;14.07;12.57;;;2.50;99.90;;;;;;5167382;28;20030;-79
2023/12/18 00:16:16;;;;;;;15.63;14.23;;;2.60;99.90;;;;;;5167270;28;20797;-79
2023/12/18 00:18:46;;;;;;;13.60;12.32;;;2.70;99.90;;;;;;5168504;28;20093;-79
2023/12/18 00:21:17;;;;;;;13.85;12.75;;;2.60;99.90;;;;;;5168228;28;20026;-79
2023/12/18 00:23:48;;;;;;;13.55;12.25;;;2.60;99.90;;;;;;5168239;28;20037;-79
2023/12/18 00:26:19;;;;;;;13.85;12.75;;;2.80;99.90;;;;;;5168424;28;20066;-80
2023/12/18 00:28:50;;;;;;;14.23;13.02;;;2.90;99.90;;;;;;5166629;28;20014;-79
2023/12/18 00:31:21;;;;;;;13.82;12.57;;;2.80;99.90;;;;;;5168465;28;20041;-79
2023/12/18 00:33:52;;;;;;;13.20;11.88;;;2.80;99.90;;;;;;5168215;28;20780;-79
2023/12/18 00:36:22;;;;;;;13.57;12.27;;;2.80;99.90;;;;;;5167673;28;20413;-80
2023/12/18 00:38:53;;;;;;;12.90;11.63;;;2.90;99.90;;;;;;5168218;28;20018;-79
2023/12/18 00:41:24;;;;;;;13.15;11.95;;;2.80;99.90;;;;;;5168044;28;20105;-80
2023/12/18 00:43:55;;;;;;;14.75;13.57;;;2.70;99.90;;;;;;5168061;28;20084;-80
2023/12/18 00:46:26;;;;;;;14.35;13.05;;;2.80;99.90;;;;;;5166895;28;20034;-80
2023/12/18 00:48:57;;;;;;;13.48;12.18;;;2.80;99.90;;;;;;5166777;28;20019;-79
2023/12/18 00:51:28;;;;;;;13.82;12.52;;;2.60;99.90;;;;;;5167815;28;20042;-79
2023/12/18 00:53:58;;;;;;;13.18;11.80;;;2.60;99.90;;;;;;5166847;28;20065;-79
2023/12/18 00:56:30;;;;;;;13.05;11.73;;;2.60;99.90;;;;;;5168062;28;20038;-79
2023/12/18 00:59:01;;;;;;;12.95;11.85;;;2.60;99.90;;;;;;5166531;28;20513;-79
2023/12/18 01:01:31;;;;;;;13.25;11.90;;;2.70;99.90;;;;;;5167679;28;20061;-79
2023/12/18 01:04:02;;;;;;;14.90;13.40;;;2.50;99.90;;;;;;5167503;28;20054;-78
2023/12/18 01:06:33;;;;;;;12.82;11.63;;;2.70;99.90;;;;;;5166255;28;20035;-79
2023/12/18 01:09:05;;;;;;;14.25;12.93;;;2.60;99.90;;;;;;5166386;28;20363;-79
2023/12/18 01:11:36;;;;;;;12.98;11.88;;;2.50;99.90;;;;;;5167436;28;20049;-79
2023/12/18 01:14:09;;;;;;;12.45;11.35;;;2.50;99.90;;;;;;5167393;28;20482;-79
2023/12/18 01:16:40;;;;;;;12.98;11.80;;;2.60;99.90;;;;;;5167471;28;20034;-79
2023/12/18 01:19:10;;;;;;;12.57;11.52;;;2.60;99.90;;;;;;5167364;28;20437;-78
2023/12/18 01:21:41;;;;;;;12.88;11.77;;;2.50;99.90;;;;;;5166955;28;20506;-79
2023/12/18 01:24:12;;;;;;;11.90;10.73;;;2.70;99.90;;;;;;5167064;28;20034;-79
2023/12/18 01:26:43;;;;;;;12.55;11.55;;;2.50;99.90;;;;;;5167121;28;20485;-79
2023/12/18 01:29:14;;;;;;;12.65;11.38;;;2.70;99.90;;;;;;5167164;28;20359;-80
2023/12/18 01:31:45;;;;;;;12.15;11.05;;;2.70;99.90;;;;;;5166820;28;20380;-78
2023/12/18 01:34:16;;;;;;;13.23;12.07;;;2.70;99.90;;;;;;5166943;28;20026;-79
2023/12/18 01:36:46;;;;;;;12.77;11.50;;;2.70;99.90;;;;;;5166780;28;20124;-79
2023/12/18 01:39:17;;;;;;;12.55;11.45;;;2.50;99.90;;;;;;5165544;28;20022;-80
2023/12/18 01:41:48;;;;;;;12.77;11.68;;;2.40;99.90;;;;;;5166868;28;20022;-79
2023/12/18 01:44:19;;;;;;;13.32;11.38;;;2.20;99.90;;;;;;5166876;28;20026;-79
2023/12/18 01:46:50;;;;;;;12.80;11.70;;;2.30;99.90;;;;;;5166901;28;20108;-79
2023/12/18 01:49:21;;;;;;;13.90;10.98;;;2.30;99.90;;;;;;5166060;28;20027;-78
2023/12/18 01:51:52;;;;;;;14.15;12.70;;;2.50;99.90;;;;;;5166812;28;20041;-79
2023/12/18 01:54:23;;;;;;;12.48;11.07;;;2.40;99.90;;;;;;5166616;28;20033;-79
2023/12/18 01:56:55;;;;;;;11.93;10.65;;;2.40;99.90;;;;;;5166735;28;20069;-79
2023/12/18 01:59:27;;;;;;;11.43;10.50;;;2.50;99.90;;;;;;5166663;28;20033;-79
2023/12/18 02:01:58;;;;;;;13.07;11.77;;;2.50;99.90;;;;;;5166589;28;20378;-80
2023/12/18 02:04:30;;;;;;;12.27;11.10;;;2.40;99.90;;;;;;5165260;28;20069;-79
2023/12/18 02:07:03;;;;;;;13.57;12.23;;;2.40;99.90;;;;;;5166612;28;20057;-79
2023/12/18 02:09:35;;;;;;;14.40;13.07;;;2.20;99.90;;;;;;5165279;28;20470;-78
2023/12/18 02:12:06;;;;;;;16.92;15.60;;;2.10;99.90;;;;;;5166387;28;20548;-79
2023/12/18 02:14:37;;;;;;;13.75;12.65;;;2.10;99.90;;;;;;5166501;28;20181;-79
2023/12/18 02:17:08;;;;;;;14.43;13.23;;;2.30;99.90;;;;;;5166463;28;20479;-79
2023/12/18 02:19:39;;;;;;;13.75;12.55;;;2.40;99.90;;;;;;5166287;28;20019;-80
2023/12/18 02:22:10;;;;;;;14.20;11.88;;;2.30;99.90;;;;;;5166259;28;20106;-78
2023/12/18 02:24:41;;;;;;;13.55;12.35;;;2.30;99.90;;;;;;5166147;28;20026;-79
2023/12/18 02:27:11;;;;;;;14.30;12.98;;;2.20;99.90;;;;;;5166376;28;20101;-79
2023/12/18 02:29:42;;;;;;;13.73;12.55;;;2.30;99.90;;;;;;5165029;28;20033;-79
2023/12/18 02:32:13;;;;;;;12.85;11.65;;;2.50;99.90;;;;;;5166160;28;20081;-79
2023/12/18 02:34:44;;;;;;;14.68;13.00;;;2.30;99.90;;;;;;5164792;28;20077;-79
2023/12/18 02:37:15;;;;;;;14.60;12.65;;;2.30;99.90;;;;;;5166236;28;20026;-79
2023/12/18 02:39:50;;;;;;;13.85;12.60;;;2.30;99.90;;;;;;5164881;28;20023;-79
2023/12/18 02:42:21;;;;;;;13.93;12.65;;;2.30;99.90;;;;;;5166177;28;20034;-79
2023/12/18 02:44:53;;;;;;;12.45;11.30;;;2.20;99.90;;;;;;5166183;28;20025;-79
2023/12/18 02:47:24;;;;;;;13.43;12.32;;;2.20;99.90;;;;;;5166534;28;20081;-78
2023/12/18 02:49:55;;;;;;;13.43;12.13;;;2.20;99.90;;;;;;5166470;28;20027;-78
2023/12/18 02:52:26;;;;;;;14.30;13.00;;;2.30;99.90;;;;;;5165937;28;20121;-79
2023/12/18 02:54:57;;;;;;;17.17;15.57;;;2.20;99.90;;;;;;5164812;28;20445;-79
2023/12/18 02:57:28;;;;;;;16.50;14.85;;;2.20;99.90;;;;;;5166073;28;20027;-79
2023/12/18 02:59:59;;;;;;;17.08;14.57;;;2.20;99.90;;;;;;5166519;28;20019;-78
2023/12/18 03:02:30;;;;;;;14.70;13.10;;;2.20;99.90;;;;;;5169687;28;20085;-79
2023/12/18 03:05:01;;;;;;;14.90;13.45;;;2.20;99.90;;;;;;5169790;28;20911;-78
2023/12/18 03:07:32;;;;;;;16.13;14.63;;;2.10;99.90;;;;;;5169729;28;20061;-78
2023/12/18 03:10:03;;;;;;;17.60;15.80;;;2.10;99.90;;;;;;5169754;28;20391;-79
2023/12/18 03:12:34;;;;;;;16.58;15.15;;;2.10;99.90;;;;;;5169881;28;20037;-80
2023/12/18 03:15:05;;;;;;;15.75;14.30;;;1.90;99.90;;;;;;5169930;28;20026;-79
2023/12/18 03:17:36;;;;;;;16.50;14.93;;;2.10;99.90;;;;;;5170132;28;20418;-79
2023/12/18 03:20:07;;;;;;;18.30;16.40;;;2.00;99.90;;;;;;5169634;28;20026;-80
2023/12/18 03:22:38;;;;;;;15.27;13.85;;;2.10;99.90;;;;;;5169693;28;20359;-79
2023/12/18 03:25:09;;;;;;;15.65;14.18;;;2.00;99.90;;;;;;5169791;28;20026;-78
2023/12/18 03:27:40;;;;;;;17.95;16.08;;;2.00;99.90;;;;;;5169437;28;20018;-78
2023/12/18 03:30:11;;;;;;;16.83;15.32;;;2.00;99.90;;;;;;5169169;28;20031;-79
2023/12/18 03:32:42;;;;;;;18.98;16.98;;;2.00;99.90;;;;;;5169315;28;20042;-79
2023/12/18 03:35:13;;;;;;;16.20;14.50;;;2.10;99.90;;;;;;5169426;28;20387;-79
2023/12/18 03:37:44;;;;;;;17.77;16.10;;;2.10;99.90;;;;;;5167231;28;20026;-79
2023/12/18 03:40:15;;;;;;;18.02;16.13;;;1.90;99.90;;;;;;5167702;28;20644;-77
2023/12/18 03:42:45;;;;;;;18.52;16.83;;;2.10;99.90;;;;;;5169314;28;20026;-79
2023/12/18 03:45:16;;;;;;;18.48;16.63;;;2.10;99.90;;;;;;5169250;28;20025;-79
2023/12/18 03:47:47;;;;;;;19.10;16.77;;;2.00;99.90;;;;;;5169224;28;20022;-79
2023/12/18 03:50:18;;;;;;;21.17;18.95;;;2.00;99.90;;;;;;5169187;28;20054;-78
2023/12/18 03:52:49;;;;;;;24.00;21.38;;;1.90;99.90;;;;;;5169166;28;20434;-79
2023/12/18 03:55:20;;;;;;;25.52;21.77;;;2.00;99.90;;;;;;5169322;28;20022;-79
2023/12/18 03:57:51;;;;;;;27.35;21.38;;;1.90;99.90;;;;;;5169261;28;20049;-79
2023/12/18 04:00:22;;;;;;;25.35;21.55;;;1.90;99.90;;;;;;5168929;28;20061;-78
2023/12/18 04:02:53;;;;;;;20.42;18.25;;;1.90;99.90;;;;;;5168751;28;20066;-78
2023/12/18 04:05:24;;;;;;;19.73;17.65;;;1.90;99.90;;;;;;5169005;28;20475;-79
2023/12/18 04:07:55;;;;;;;18.15;16.27;;;1.90;99.90;;;;;;5168896;28;20058;-79
2023/12/18 04:10:25;;;;;;;17.60;15.98;;;2.10;99.90;;;;;;5168261;28;20026;-79
2023/12/18 04:12:56;;;;;;;18.00;16.30;;;1.90;99.90;;;;;;5168290;28;20033;-78
2023/12/18 04:15:28;;;;;;;24.25;16.55;;;1.90;99.90;;;;;;5167338;28;20370;-78
2023/12/18 04:17:58;;;;;;;18.33;16.45;;;2.00;99.90;;;;;;5168656;28;20031;-79
2023/12/18 04:20:29;;;;;;;16.58;15.07;;;1.80;99.90;;;;;;5168540;28;20041;-78
2023/12/18 04:23:00;;;;;;;16.33;14.43;;;2.00;99.90;;;;;;5168546;28;20038;-78
2023/12/18 04:25:31;;;;;;;15.30;13.85;;;1.80;99.90;;;;;;5168424;28;20022;-78
2023/12/18 04:30:42;;;;;;;14.75;13.35;;;1.80;99.90;;;;;;5533845;23;20054;-79
2023/12/18 04:33:14;;;;;;;16.63;15.10;;;1.90;99.90;;;;;;5168126;28;20030;-78
2023/12/18 04:35:45;;;;;;;14.27;12.82;;;1.80;99.90;;;;;;5151192;28;20033;-79
2023/12/18 04:38:16;;;;;;;13.77;12.32;;;1.60;99.90;;;;;;5168272;28;20101;-78
2023/12/18 04:40:47;;;;;;;14.30;12.93;;;1.80;99.90;;;;;;5168270;28;20427;-79
2023/12/18 04:43:18;;;;;;;13.13;11.82;;;1.80;99.90;;;;;;5168201;28;20093;-80
2023/12/18 04:45:49;;;;;;;15.45;13.75;;;1.80;99.90;;;;;;5168293;28;20121;-79
2023/12/18 04:48:20;;;;;;;14.18;12.88;;;1.90;99.90;;;;;;5168719;28;20034;-79
2023/12/18 04:50:50;;;;;;;16.45;12.93;;;1.80;99.90;;;;;;5167615;28;20077;-79
2023/12/18 04:53:22;;;;;;;15.63;14.02;;;1.70;99.90;;;;;;5150495;28;20033;-79
2023/12/18 04:55:52;;;;;;;17.25;14.55;;;1.60;99.90;;;;;;5168117;28;20022;-80
2023/12/18 04:58:23;;;;;;;22.15;18.58;;;1.70;99.90;;;;;;5167962;28;20035;-80
2023/12/18 05:00:54;;;;;;;24.05;21.38;;;1.80;99.90;;;;;;5167596;28;20453;-80
2023/12/18 05:03:25;;;;;;;22.45;19.25;;;1.60;99.90;;;;;;5167704;28;20030;-80
2023/12/18 05:05:56;;;;;;;22.88;20.42;;;1.60;99.90;;;;;;5167829;28;20046;-79
2023/12/18 05:08:27;;;;;;;20.92;18.63;;;1.70;99.90;;;;;;5167918;28;20092;-80
2023/12/18 05:10:58;;;;;;;23.05;19.17;;;1.60;99.90;;;;;;5167272;28;20034;-80
2023/12/18 05:13:28;;;;;;;21.45;18.15;;;1.60;99.90;;;;;;5167442;28;20049;-79
2023/12/18 05:15:59;;;;;;;24.58;18.50;;;1.40;99.90;;;;;;5167064;28;20054;-79
2023/12/18 05:18:30;;;;;;;21.23;16.92;;;1.30;99.90;;;;;;5167337;28;20026;-80
2023/12/18 05:21:03;;;;;;;18.23;15.88;;;1.50;99.90;;;;;;5167216;28;20038;-80
2023/12/18 05:23:34;;;;;;;17.67;15.75;;;1.50;99.90;;;;;;5166971;28;20431;-80
2023/12/18 05:26:04;;;;;;;17.75;15.85;;;1.60;99.90;;;;;;5167215;28;20034;-80
2023/12/18 05:28:36;;;;;;;19.50;17.50;;;1.60;99.90;;;;;;5167026;28;20091;-80
2023/12/18 05:31:10;;;;;;;20.63;16.33;;;1.40;99.90;;;;;;5166608;28;20487;-79
2023/12/18 05:33:41;;;;;;;19.17;17.13;;;1.50;99.90;;;;;;5167246;28;20031;-81
2023/12/18 05:36:12;;;;;;;21.48;17.98;;;1.60;99.90;;;;;;5167105;28;20023;-80
2023/12/18 05:38:43;;;;;;;31.95;24.33;;;1.60;99.90;;;;;;5167223;28;20165;-80
2023/12/18 05:41:14;;;;;;;30.15;23.52;;;1.60;99.90;;;;;;5166903;28;20355;-80
2023/12/18 05:43:45;;;;;;;36.03;26.92;;;1.60;99.90;;;;;;5149586;28;20493;-80
2023/12/18 05:46:16;;;;;;;34.72;27.88;;;1.60;99.90;;;;;;5149345;28;20046;-79
2023/12/18 05:48:48;;;;;;;30.02;22.05;;;1.40;99.90;;;;;;5166836;28;20108;-79
2023/12/18 05:51:20;;;;;;;27.65;20.60;;;1.30;99.90;;;;;;5166481;28;20106;-79
2023/12/18 05:53:51;;;;;;;28.92;21.83;;;1.30;99.90;;;;;;5166743;28;20030;-80
2023/12/18 05:56:22;;;;;;;31.60;25.67;;;1.50;99.90;;;;;;5166807;28;20034;-80
2023/12/18 05:58:52;;;;;;;37.05;27.65;;;1.50;99.90;;;;;;5166690;28;20029;-80
2023/12/18 06:01:23;;;;;;;35.40;28.08;;;1.60;99.90;;;;;;5166330;28;20041;-79
2023/12/18 06:03:55;;;;;;;34.58;28.25;;;1.60;99.90;;;;;;5166323;28;20117;-80
2023/12/18 06:06:25;;;;;;;39.75;33.63;;;1.60;99.90;;;;;;5166304;28;20113;-80
2023/12/18 06:08:56;;;;;;;41.20;33.97;;;1.60;99.90;;;;;;5166390;28;20061;-80
2023/12/18 06:11:27;;;;;;;37.60;32.03;;;1.60;99.90;;;;;;5148865;28;20030;-80
2023/12/18 06:13:58;;;;;;;33.33;29.80;;;1.80;99.90;;;;;;5166179;28;20066;-80
2023/12/18 06:16:29;;;;;;;35.55;31.63;;;1.80;99.90;;;;;;5166409;28;20109;-80
2023/12/18 06:19:00;;;;;;;37.22;30.65;;;2.00;99.90;;;;;;5166394;28;20098;-80
2023/12/18 06:21:31;;;;;;;31.20;25.42;;;1.90;99.90;;;;;;5166267;28;20394;-80
2023/12/18 06:24:02;;;;;;;40.90;31.42;;;2.00;99.90;;;;;;5166139;28;20022;-80
2023/12/18 06:26:33;;;;;;;38.42;31.15;;;2.10;99.90;;;;;;5166437;28;20038;-81
2023/12/18 06:29:05;;;;;;;46.22;33.10;;;2.10;99.90;;;;;;5165071;28;20058;-86
2023/12/18 06:31:36;;;;;;;31.40;24.73;;;2.10;99.90;;;;;;5126477;29;20039;-81
2023/12/18 06:34:07;;;;;;;23.00;19.23;;;2.10;99.90;;;;;;5124736;28;20166;-79
2023/12/18 06:36:38;;;;;;;19.98;17.85;;;2.00;99.90;;;;;;5126314;29;20023;-79
2023/12/18 06:39:10;;;;;;;19.05;17.13;;;2.10;99.90;;;;;;5126010;29;20143;-75
2023/12/18 06:41:41;;;;;;;18.58;16.65;;;2.20;99.90;;;;;;5126257;28;20027;-76
2023/12/18 06:44:12;;;;;;;19.13;17.20;;;2.30;99.90;;;;;;5126038;29;20031;-78
2023/12/18 06:46:42;;;;;;;17.88;16.00;;;2.30;99.90;;;;;;5126362;29;20023;-76
2023/12/18 06:49:14;;;;;;;17.70;15.43;;;2.60;99.90;;;;;;5126094;29;20050;-76
2023/12/18 06:51:44;;;;;;;16.65;15.02;;;2.70;99.90;;;;;;5126200;28;20035;-77
2023/12/18 06:54:16;;;;;;;17.45;15.73;;;2.90;99.90;;;;;;5125962;28;20563;-76
2023/12/18 06:56:47;;;;;;;22.02;18.13;;;3.10;99.90;;;;;;5126115;29;20028;-78
2023/12/18 06:59:17;;;;;;;19.10;17.23;;;3.10;99.90;;;;;;5125675;28;20034;-77
2023/12/18 07:01:48;;;;;;;18.35;16.50;;;3.20;99.90;;;;;;5125662;29;20031;-78
2023/12/18 07:04:19;;;;;;;17.33;15.45;;;3.30;99.90;;;;;;5124487;29;20031;-77
2023/12/18 07:06:50;;;;;;;16.90;15.23;;;3.10;99.90;;;;;;5124378;29;20416;-78
2023/12/18 07:09:21;;;;;;;18.35;16.48;;;3.30;99.90;;;;;;5125887;29;20046;-78
2023/12/18 07:11:52;;;;;;;17.70;16.00;;;3.40;99.90;;;;;;5125794;29;20035;-79
2023/12/18 07:14:23;;;;;;;17.55;15.85;;;3.70;99.90;;;;;;5125613;28;20455;-77
2023/12/18 07:16:54;;;;;;;16.85;15.23;;;3.80;99.90;;;;;;5125733;29;20031;-79
2023/12/18 07:19:25;;;;;;;18.00;16.10;;;3.80;99.90;;;;;;5125731;29;20031;-78
2023/12/18 07:21:56;;;;;;;18.73;16.98;;;3.80;99.90;;;;;;5125489;29;20031;-79
2023/12/18 07:24:27;;;;;;;21.23;19.00;;;4.00;99.90;;;;;;5125791;29;20027;-77
2023/12/18 07:26:59;;;;;;;23.10;20.70;;;4.00;99.90;;;;;;5124445;29;20101;-76
2023/12/18 07:29:30;;;;;;;22.52;20.20;;;3.90;99.90;;;;;;5132185;28;20049;-81
2023/12/18 07:32:01;;;;;;;25.80;23.10;;;4.00;99.90;;;;;;5165679;28;20121;-81
2023/12/18 07:34:32;;;;;;;22.42;20.15;;;4.40;99.90;;;;;;5165709;28;20028;-80
2023/12/18 07:37:03;;;;;;;21.95;19.10;;;4.40;99.90;;;;;;5165490;28;20029;-76
2023/12/18 07:39:34;;;;;;;22.48;20.00;;;4.50;99.90;;;;;;5165649;28;20050;-81
2023/12/18 07:42:05;;;;;;;20.92;18.70;;;4.60;99.90;;;;;;5165603;28;20054;-77
2023/12/18 07:44:36;;;;;;;26.65;23.98;;;4.80;99.90;;;;;;5164708;28;20045;-79
2023/12/18 07:47:07;;;;;;;18.33;16.42;;;5.00;99.90;;;;;;5167326;28;20109;-79
2023/12/18 07:49:38;;;;;;;16.08;14.48;;;5.20;99.90;;;;;;5169186;28;20026;-80
2023/12/18 07:52:09;;;;;;;17.05;14.90;;;5.00;99.90;;;;;;5168990;28;20740;-76
2023/12/18 07:54:40;;;;;;;17.40;15.70;;;5.20;99.90;;;;;;5169024;28;20033;-77
2023/12/18 07:57:11;;;;;;;15.85;14.18;;;5.50;99.90;;;;;;5169043;28;20037;-77
2023/12/18 07:59:41;;;;;;;16.55;14.85;;;5.60;99.90;;;;;;5168789;28;20034;-80
2023/12/18 08:02:12;;;;;;;17.85;15.65;;;5.80;99.90;;;;;;5169162;28;20022;-80
2023/12/18 08:04:43;;;;;;;16.75;15.02;;;6.10;99.90;;;;;;5168821;28;20054;-79
2023/12/18 08:07:14;;;;;;;17.77;15.98;;;6.20;99.90;;;;;;5168842;28;20026;-79
2023/12/18 08:09:45;;;;;;;18.75;16.85;;;6.30;99.90;;;;;;5168662;28;20023;-79
2023/12/18 08:12:16;;;;;;;23.35;21.15;;;6.40;99.90;;;;;;5151426;28;20035;-77
2023/12/18 08:14:47;;;;;;;21.80;19.63;;;6.60;99.90;;;;;;5168824;28;20022;-79
2023/12/18 08:17:18;;;;;;;27.05;24.15;;;6.90;99.90;;;;;;5168862;28;20026;-79
2023/12/18 08:19:49;;;;;;;26.67;23.80;;;7.10;99.90;;;;;;5168263;28;20030;-78
2023/12/18 08:22:20;;;;;;;22.45;20.35;;;7.30;99.90;;;;;;5168534;28;20023;-78
2023/12/18 08:24:51;;;;;;;16.20;14.70;;;7.50;99.90;;;;;;5168269;28;20085;-79
2023/12/18 08:27:21;;;;;;;19.92;17.92;;;7.70;99.90;;;;;;5168257;28;20053;-79
2023/12/18 08:29:52;;;;;;;19.25;17.40;;;7.80;99.90;;;;;;5168328;28;20058;-79
2023/12/18 08:32:23;;;;;;;22.95;20.58;;;7.90;99.90;;;;;;5168337;28;20046;-79
2023/12/18 08:34:54;;;;;;;22.98;20.63;;;7.90;99.90;;;;;;5168267;28;20462;-79
2023/12/18 08:37:25;;;;;;;23.45;21.20;;;8.30;99.90;;;;;;5168435;28;20718;-79
2023/12/18 08:39:56;;;;;;;20.88;19.00;;;8.50;99.90;;;;;;5168151;28;20081;-77
2023/12/18 08:42:27;;;;;;;21.65;17.63;;;8.70;99.90;;;;;;5168198;28;20113;-76
2023/12/18 08:44:58;;;;;;;22.40;20.50;;;8.80;99.90;;;;;;5168210;28;20039;-78
2023/12/18 08:47:29;;;;;;;20.58;18.80;;;9.00;99.90;;;;;;5168123;28;20590;-80
2023/12/18 08:50:00;;;;;;;19.95;18.00;;;9.20;99.90;;;;;;5168061;28;20025;-78
2023/12/18 08:52:31;;;;;;;17.70;16.20;;;9.30;99.90;;;;;;5168122;28;20371;-78
2023/12/18 08:55:03;;;;;;;16.40;14.77;;;9.50;99.90;;;;;;5150453;28;20030;-80
2023/12/18 08:57:34;;;;;;;14.02;12.73;;;9.60;99.90;;;;;;5150159;28;20034;-79
2023/12/18 09:00:06;;;;;;;14.07;12.60;;;9.70;99.90;;;;;;5167560;28;20747;-79
2023/12/18 09:02:37;;;;;;;12.27;11.07;;;9.80;99.90;;;;;;5167883;28;20030;-79
2023/12/18 09:05:08;;;;;;;12.50;11.30;;;10.00;99.90;;;;;;5167866;28;20097;-79
2023/12/18 09:07:39;;;;;;;13.18;12.07;;;10.10;99.90;;;;;;5150249;28;20042;-79
2023/12/18 09:10:11;;;;;;;13.57;12.48;;;10.10;99.90;;;;;;5149893;28;20014;-79
2023/12/18 09:12:42;;;;;;;14.43;13.18;;;10.30;99.90;;;;;;5167462;28;20038;-79
2023/12/18 09:15:13;;;;;;;13.38;11.57;;;10.40;99.90;;;;;;5167321;28;20085;-77
2023/12/18 09:17:44;;;;;;;14.07;12.77;;;10.60;99.90;;;;;;5167563;28;20122;-78
2023/12/18 09:20:15;;;;;;;16.70;15.40;;;10.70;99.90;;;;;;5166996;28;20027;-79
2023/12/18 09:22:48;;;;;;;20.90;19.38;;;10.80;99.90;;;;;;5167317;28;20041;-79
2023/12/18 09:25:19;;;;;;;25.25;23.35;;;11.20;99.90;;;;;;5167044;28;20494;-78
2023/12/18 09:27:50;;;;;;;28.00;26.02;;;11.10;99.90;;;;;;5167608;28;20026;-78
2023/12/18 09:30:21;;;;;;;25.65;23.85;;;11.20;99.90;;;;;;5166997;28;20533;-78
2023/12/18 09:32:52;;;;;;;18.77;17.23;;;11.40;99.90;;;;;;5167110;28;20030;-78
2023/12/18 09:35:23;;;;;;;17.83;16.30;;;11.40;99.90;;;;;;5166918;28;20058;-79
2023/12/18 09:37:53;;;;;;;15.75;14.40;;;11.50;99.90;;;;;;5167128;28;20077;-78
2023/12/18 09:40:24;;;;;;;18.00;16.48;;;11.70;99.90;;;;;;5166980;28;20065;-78
2023/12/18 09:42:55;;;;;;;17.20;15.55;;;11.70;99.90;;;;;;5167034;28;20130;-80
2023/12/18 09:45:26;;;;;;;15.02;13.93;;;11.90;99.90;;;;;;5166956;28;20097;-77
2023/12/18 09:47:58;;;;;;;13.23;12.27;;;12.10;99.90;;;;;;5167237;28;20033;-78
2023/12/18 09:50:29;;;;;;;14.52;13.32;;;12.10;99.90;;;;;;5149315;28;20027;-78
2023/12/18 09:53:07;;;;;;;14.85;13.52;;;12.10;99.90;;;;;;5149223;28;20045;-77
2023/12/18 09:55:37;;;;;;;16.75;15.55;;;12.30;99.90;;;;;;5166906;28;20387;-78
2023/12/18 09:58:13;;;;;;;14.95;13.85;;;12.40;99.90;;;;;;5166646;28;20038;-78
2023/12/18 10:00:44;;;;;;;13.52;12.52;;;12.50;99.90;;;;;;5166429;28;20398;-78
2023/12/18 10:03:16;;;;;;;14.80;13.75;;;12.50;99.90;;;;;;5166479;28;20029;-77
2023/12/18 10:05:47;;;;;;;13.88;12.75;;;12.80;99.90;;;;;;5166692;28;20030;-77
2023/12/18 10:08:18;;;;;;;12.25;11.35;;;12.90;99.90;;;;;;5166469;28;20548;-78
2023/12/18 10:10:49;;;;;;;12.10;11.02;;;12.50;99.90;;;;;;5166135;28;20033;-78
2023/12/18 10:13:20;;;;;;;11.48;10.38;;;12.40;99.90;;;;;;5166693;28;20042;-78
2023/12/18 10:15:55;;;;;;;10.43;9.65;;;12.80;99.90;;;;;;5149020;28;20026;-78
2023/12/18 10:18:26;;;;;;;12.48;11.68;;;13.10;99.90;;;;;;5166546;28;20489;-77
2023/12/18 10:20:57;;;;;;;12.00;11.10;;;12.90;99.90;;;;;;5166402;28;20027;-77
2023/12/18 10:23:35;;;;;;;12.55;11.65;;;13.30;99.90;;;;;;5166380;28;20514;-77
2023/12/18 10:26:06;;;;;;;12.35;11.45;;;12.90;99.90;;;;;;5166432;28;20026;-77
2023/12/18 10:31:17;;;;;;;;;;;13.00;99.90;;;;;;5221127;23;20050;-77
2023/12/18 10:33:49;;;;;;;13.23;12.23;;;13.10;99.90;;;;;;5168925;28;20254;-78
2023/12/18 10:36:22;;;;;;;14.90;13.93;;;13.10;99.90;;;;;;5186180;28;20043;-79
2023/12/18 10:38:56;;;;;;;14.13;13.10;;;13.20;99.90;;;;;;5186171;28;20102;-78
2023/12/18 10:41:30;;;;;;;13.52;12.63;;;13.40;99.90;;;;;;5186379;28;20064;-77
2023/12/18 10:44:01;;;;;;;13.18;12.27;;;13.20;99.90;;;;;;5168814;28;20057;-79
2023/12/18 10:46:33;;;;;;;14.88;13.88;;;13.20;99.90;;;;;;5186481;28;20481;-78
2023/12/18 10:49:07;;;;;;;15.98;14.88;;;13.30;99.90;;;;;;5186080;28;20022;-78
2023/12/18 10:51:39;;;;;;;17.27;16.08;;;13.20;99.90;;;;;;5168697;28;20056;-77
2023/12/18 10:54:11;;;;;;;16.58;15.57;;;13.00;99.90;;;;;;5168597;28;20429;-77
2023/12/18 11:21:41;;;;;;;12.05;10.85;;;14.00;99.90;;;;;;5286804;27;20416;-78
2023/12/18 11:24:12;;;;;;;14.52;13.52;;;14.10;99.90;;;;;;5286592;28;20461;-79
2023/12/18 11:26:48;;;;;;;16.63;15.23;;;14.10;99.90;;;;;;5285699;28;20085;-76
2023/12/18 11:29:37;;;;;;;17.00;15.80;;;13.70;99.90;;;;;;5287039;28;20028;-76
2023/12/18 11:32:11;;;;;;;19.07;17.43;;;13.90;99.90;;;;;;5286865;28;20032;-77
2023/12/18 11:34:44;;;;;;;19.42;18.00;;;14.10;99.90;;;;;;5286928;28;20027;-78
2023/12/18 11:37:15;;;;;;;21.63;19.63;;;14.00;99.90;;;;;;5286872;28;20020;-80
2023/12/18 11:39:46;;;;;;;23.73;21.63;;;13.50;99.90;;;;;;5286669;28;20039;-79
2023/12/18 11:42:47;;;;;;;23.65;21.30;;;13.70;99.90;;;;;;5286631;28;20038;-77
2023/12/18 11:45:19;;;;;;;;;;;13.60;99.90;;;;;;5287377;28;20103;-79
2023/12/18 11:47:56;;;;;;;22.40;20.50;;;13.90;99.90;;;;;;5286566;28;19911;-76
2023/12/18 11:50:32;;;;;;;24.13;21.85;;;13.90;99.90;;;;;;5286252;28;20042;-76
2023/12/18 11:53:07;;;;;;;22.05;20.15;;;13.70;99.90;;;;;;5286675;28;20052;-79
2023/12/18 11:55:41;;;;;;;20.52;18.80;;;13.90;99.90;;;;;;5286495;28;20398;-75
2023/12/18 11:58:12;;;;;;;20.63;19.05;;;14.10;99.90;;;;;;5286573;28;20020;-80
2023/12/18 12:00:43;;;;;;;18.20;16.80;;;14.00;99.90;;;;;;5286395;28;20028;-80
2023/12/18 12:03:14;;;;;;;18.60;16.88;;;14.40;99.90;;;;;;5286055;28;20023;-75
2023/12/18 12:05:49;;;;;;;16.02;14.77;;;14.30;99.90;;;;;;5286394;28;20027;-80
2023/12/18 12:08:20;;;;;;;15.93;14.73;;;14.70;99.90;;;;;;5286175;28;20114;-80
2023/12/18 12:10:50;;;;;;;15.30;13.90;;;14.40;99.90;;;;;;5286011;28;20160;-80
2023/12/18 12:13:24;;;;;;;16.10;14.90;;;14.50;99.90;;;;;;5286525;28;20101;-80
2023/12/18 12:16:00;;;;;;;13.20;12.25;;;14.90;98.40;;;;;;5286470;28;20073;-78
2023/12/18 12:18:33;;;;;;;12.15;11.15;;;15.40;98.10;;;;;;5285577;28;20035;-81
2023/12/18 12:21:04;;;;;;;12.35;11.35;;;15.50;98.30;;;;;;5280468;28;20479;-80
2023/12/18 12:23:36;;;;;;;11.57;10.68;;;15.80;98.80;;;;;;5261134;28;20039;-80
2023/12/18 12:26:09;;;;;;;17.25;16.00;;;17.00;99.90;;;;;;5250611;28;20099;-78
2023/12/18 12:28:42;;;;;;;11.80;11.05;;;17.60;94.80;;;;;;5250482;28;20025;-78
2023/12/18 12:31:15;;;;;;;10.30;9.50;;;18.70;95.70;;;;;;5250208;28;20039;-80
2023/12/18 12:33:48;;;;;;;12.98;9.98;;;24.70;82.50;;;;;;5250064;28;20028;-86
2023/12/18 12:36:21;;;;;;;8.38;7.63;;;32.30;74.60;;;;;;5250997;28;20031;-83
2023/12/18 12:38:54;;;;;;;8.23;7.57;;;32.40;62.10;;;;;;5250626;28;20495;-81
2023/12/18 12:41:25;;;;;;;6.63;6.13;;;33.60;47.60;;;;;;5250358;28;20036;-79
2023/12/18 12:43:58;;;;;;;10.13;6.47;;;32.90;39.50;;;;;;5250690;28;20036;-77
2023/12/18 12:46:29;;;;;;;7.93;7.20;;;33.60;36.70;;;;;;5250460;28;20106;-78
2023/12/18 12:49:01;;;;;;;7.00;6.50;;;33.10;36.30;;;;;;5249181;28;20484;-83
2023/12/18 12:51:32;;;;;;;8.32;6.72;;;34.20;34.10;;;;;;5257345;28;20095;-82
2023/12/18 12:54:05;;;;;;;6.30;5.70;;;34.60;35.60;;;;;;5268691;28;20028;-81
2023/12/18 12:56:37;;;;;;;11.88;10.73;;;31.50;37.90;;;;;;5250516;28;20029;-80
2023/12/18 12:59:08;;;;;;;6.40;5.90;;;31.10;34.40;;;;;;5250623;28;20032;-79
2023/12/18 13:01:39;;;;;;;7.40;6.80;;;31.40;40.70;;;;;;5250738;28;20017;-83
2023/12/18 13:04:10;;;;;;;16.75;15.30;;;31.10;34.40;;;;;;5250266;28;20034;-81
2023/12/18 13:06:41;;;;;;;26.73;24.05;;;31.40;35.90;;;;;;5250278;28;20025;-85
2023/12/18 13:09:12;;;;;;;16.30;14.80;;;31.70;37.20;;;;;;5250273;28;20021;-75
2023/12/18 13:11:43;;;;;;;10.02;9.02;;;30.30;37.20;;;;;;5250329;28;20032;-74
2023/12/18 13:14:14;;;;;;;14.52;13.20;;;29.50;35.10;;;;;;5248188;28;20388;-80
2023/12/18 13:16:45;;;;;;;68.53;61.33;;;29.80;38.10;;;;;;5250579;28;20042;-77
2023/12/18 13:19:15;;;;;;;24.27;21.75;;;29.30;39.30;;;;;;5270885;28;20507;-80
2023/12/18 13:21:47;;;;;;;38.17;34.20;;;28.50;49.40;;;;;;5258654;28;20033;-75
2023/12/18 13:24:18;;;;;;;14.30;13.00;;;29.20;55.60;;;;;;5251636;28;20389;-80
2023/12/18 13:26:49;;;;;;;49.15;44.08;;;21.80;66.60;;;;;;5270095;28;20048;-80